sensor_id;sensor_type;location;lat;lon;timestamp;pressure;altitude;pressure_sealevel;temperature;humidity
73952;BME280;62304;47.662;18.324;2023-08-01T00:01:58;99698.97;;;18.53;79.57
73952;BME280;62304;47.662;18.324;2023-08-01T00:05:01;99700.03;;;18.59;78.87
73952;BME280;62304;47.662;18.324;2023-08-01T00:08:04;99703.44;;;18.51;78.61
73952;BME280;62304;47.662;18.324;2023-08-01T00:11:07;99695.81;;;18.51;78.78
73952;BME280;62304;47.662;18.324;2023-08-01T00:14:09;99691.06;;;18.48;78.78
73952;BME280;62304;47.662;18.324;2023-08-01T00:17:13;99695.47;;;18.49;79.35
73952;BME280;62304;47.662;18.324;2023-08-01T00:20:16;99692.03;;;18.42;79.74
73952;BME280;62304;47.662;18.324;2023-08-01T00:23:22;99680.91;;;18.38;80.69
73952;BME280;62304;47.662;18.324;2023-08-01T00:26:26;99676.84;;;18.39;80.70
73952;BME280;62304;47.662;18.324;2023-08-01T00:29:29;99675.16;;;18.26;81.76
73952;BME280;62304;47.662;18.324;2023-08-01T00:32:34;99677.38;;;18.34;81.12
73952;BME280;62304;47.662;18.324;2023-08-01T00:35:38;99675.84;;;18.30;82.24
73952;BME280;62304;47.662;18.324;2023-08-01T00:38:41;99680.47;;;18.56;80.46
73952;BME280;62304;47.662;18.324;2023-08-01T00:41:46;99669.56;;;18.58;80.76
73952;BME280;62304;47.662;18.324;2023-08-01T00:44:49;99679.47;;;18.62;80.55
73952;BME280;62304;47.662;18.324;2023-08-01T00:47:53;99673.53;;;18.44;80.87
73952;BME280;62304;47.662;18.324;2023-08-01T00:51:04;99665.81;;;18.48;80.47
73952;BME280;62304;47.662;18.324;2023-08-01T00:54:08;99664.63;;;18.30;81.81
73952;BME280;62304;47.662;18.324;2023-08-01T00:57:11;99663.72;;;18.36;81.13
73952;BME280;62304;47.662;18.324;2023-08-01T01:08:05;99645.44;;;18.44;81.95
73952;BME280;62304;47.662;18.324;2023-08-01T01:11:10;99634.47;;;18.34;82.74
73952;BME280;62304;47.662;18.324;2023-08-01T01:14:13;99629.13;;;18.39;82.28
73952;BME280;62304;47.662;18.324;2023-08-01T01:17:16;99627.00;;;18.43;81.56
73952;BME280;62304;47.662;18.324;2023-08-01T01:20:23;99629.97;;;18.52;82.48
73952;BME280;62304;47.662;18.324;2023-08-01T01:23:30;99632.09;;;18.48;82.72
73952;BME280;62304;47.662;18.324;2023-08-01T01:26:36;99625.50;;;18.55;82.33
73952;BME280;62304;47.662;18.324;2023-08-01T01:29:41;99625.44;;;18.58;83.31
73952;BME280;62304;47.662;18.324;2023-08-01T01:32:46;99618.28;;;18.70;82.09
73952;BME280;62304;47.662;18.324;2023-08-01T01:35:49;99607.47;;;18.68;82.38
73952;BME280;62304;47.662;18.324;2023-08-01T01:38:52;99612.03;;;18.78;82.37
73952;BME280;62304;47.662;18.324;2023-08-01T01:41:55;99607.97;;;18.79;82.86
73952;BME280;62304;47.662;18.324;2023-08-01T01:44:58;99599.09;;;18.81;83.14
73952;BME280;62304;47.662;18.324;2023-08-01T01:48:01;99599.72;;;18.88;83.08
73952;BME280;62304;47.662;18.324;2023-08-01T01:51:04;99599.97;;;18.94;82.94
73952;BME280;62304;47.662;18.324;2023-08-01T01:54:07;99591.97;;;18.92;83.15
73952;BME280;62304;47.662;18.324;2023-08-01T01:57:10;99583.47;;;19.08;82.10
73952;BME280;62304;47.662;18.324;2023-08-01T02:00:13;99586.56;;;18.98;82.50
73952;BME280;62304;47.662;18.324;2023-08-01T02:03:16;99575.94;;;19.05;82.24
73952;BME280;62304;47.662;18.324;2023-08-01T02:06:20;99580.31;;;19.06;82.33
73952;BME280;62304;47.662;18.324;2023-08-01T02:09:23;99566.03;;;19.01;82.04
73952;BME280;62304;47.662;18.324;2023-08-01T02:12:27;99564.19;;;18.94;82.30
73952;BME280;62304;47.662;18.324;2023-08-01T02:15:34;99562.78;;;19.02;82.08
73952;BME280;62304;47.662;18.324;2023-08-01T02:18:38;99569.28;;;18.99;82.22
73952;BME280;62304;47.662;18.324;2023-08-01T02:21:43;99554.56;;;19.08;81.96
73952;BME280;62304;47.662;18.324;2023-08-01T02:24:46;99556.94;;;19.09;81.61
73952;BME280;62304;47.662;18.324;2023-08-01T02:27:50;99555.59;;;19.13;81.64
73952;BME280;62304;47.662;18.324;2023-08-01T02:30:53;99565.66;;;19.27;80.89
73952;BME280;62304;47.662;18.324;2023-08-01T02:33:56;99557.78;;;19.22;81.05
73952;BME280;62304;47.662;18.324;2023-08-01T02:36:59;99553.16;;;19.28;80.79
73952;BME280;62304;47.662;18.324;2023-08-01T02:40:08;99548.34;;;19.29;80.85
73952;BME280;62304;47.662;18.324;2023-08-01T02:43:11;99554.09;;;19.25;81.07
73952;BME280;62304;47.662;18.324;2023-08-01T02:46:14;99549.47;;;19.31;80.80
73952;BME280;62304;47.662;18.324;2023-08-01T02:49:17;99546.88;;;19.37;80.45
73952;BME280;62304;47.662;18.324;2023-08-01T02:52:20;99551.19;;;19.41;80.12
73952;BME280;62304;47.662;18.324;2023-08-01T02:55:23;99532.41;;;19.51;79.80
73952;BME280;62304;47.662;18.324;2023-08-01T02:58:26;99529.47;;;19.54;79.51
73952;BME280;62304;47.662;18.324;2023-08-01T03:01:29;99530.16;;;19.58;79.33
73952;BME280;62304;47.662;18.324;2023-08-01T03:04:32;99533.84;;;19.55;79.39
73952;BME280;62304;47.662;18.324;2023-08-01T03:07:48;99535.09;;;19.54;79.20
73952;BME280;62304;47.662;18.324;2023-08-01T03:10:51;99530.34;;;19.51;79.42
73952;BME280;62304;47.662;18.324;2023-08-01T03:13:54;99521.34;;;19.56;79.11
73952;BME280;62304;47.662;18.324;2023-08-01T03:16:57;99524.06;;;19.60;78.89
73952;BME280;62304;47.662;18.324;2023-08-01T03:20:01;99521.47;;;19.65;78.65
73952;BME280;62304;47.662;18.324;2023-08-01T03:23:04;99522.59;;;19.67;78.34
73952;BME280;62304;47.662;18.324;2023-08-01T03:26:07;99521.47;;;19.65;78.33
73952;BME280;62304;47.662;18.324;2023-08-01T03:29:10;99525.19;;;19.62;78.70
73952;BME280;62304;47.662;18.324;2023-08-01T03:32:13;99518.53;;;19.68;78.28
73952;BME280;62304;47.662;18.324;2023-08-01T03:35:18;99515.53;;;19.63;78.32
73952;BME280;62304;47.662;18.324;2023-08-01T03:38:21;99509.56;;;19.49;78.82
73952;BME280;62304;47.662;18.324;2023-08-01T03:41:24;99508.53;;;19.42;79.22
73952;BME280;62304;47.662;18.324;2023-08-01T03:44:27;99518.00;;;19.36;79.39
73952;BME280;62304;47.662;18.324;2023-08-01T03:47:30;99515.06;;;19.27;79.99
73952;BME280;62304;47.662;18.324;2023-08-01T03:50:33;99513.47;;;19.26;80.16
73952;BME280;62304;47.662;18.324;2023-08-01T03:53:37;99517.09;;;19.27;80.15
73952;BME280;62304;47.662;18.324;2023-08-01T03:56:40;99513.47;;;19.26;80.18
73952;BME280;62304;47.662;18.324;2023-08-01T03:59:46;99517.69;;;19.18;80.63
73952;BME280;62304;47.662;18.324;2023-08-01T04:02:49;99508.59;;;19.14;81.01
73952;BME280;62304;47.662;18.324;2023-08-01T04:05:52;99504.87;;;19.17;81.15
73952;BME280;62304;47.662;18.324;2023-08-01T04:08:56;99502.97;;;19.14;81.58
73952;BME280;62304;47.662;18.324;2023-08-01T04:11:59;99487.00;;;19.11;81.64
73952;BME280;62304;47.662;18.324;2023-08-01T04:15:02;99490.94;;;19.13;81.45
73952;BME280;62304;47.662;18.324;2023-08-01T04:18:06;99496.22;;;19.12;81.79
73952;BME280;62304;47.662;18.324;2023-08-01T04:21:09;99502.62;;;19.12;81.77
73952;BME280;62304;47.662;18.324;2023-08-01T04:24:12;99500.81;;;19.18;81.63
73952;BME280;62304;47.662;18.324;2023-08-01T04:27:15;99493.25;;;19.31;81.27
73952;BME280;62304;47.662;18.324;2023-08-01T04:30:18;99484.81;;;19.44;80.76
73952;BME280;62304;47.662;18.324;2023-08-01T04:33:21;99485.34;;;19.51;80.47
73952;BME280;62304;47.662;18.324;2023-08-01T04:36:24;99493.34;;;19.65;79.59
73952;BME280;62304;47.662;18.324;2023-08-01T04:39:27;99501.41;;;19.75;79.46
73952;BME280;62304;47.662;18.324;2023-08-01T04:42:30;99502.44;;;19.82;79.06
73952;BME280;62304;47.662;18.324;2023-08-01T04:45:33;99494.09;;;19.90;78.48
73952;BME280;62304;47.662;18.324;2023-08-01T04:48:36;99489.69;;;20.02;77.91
73952;BME280;62304;47.662;18.324;2023-08-01T04:51:39;99493.72;;;20.13;77.49
73952;BME280;62304;47.662;18.324;2023-08-01T04:54:42;99488.50;;;20.24;76.98
73952;BME280;62304;47.662;18.324;2023-08-01T04:57:45;99493.09;;;20.31;76.69
73952;BME280;62304;47.662;18.324;2023-08-01T05:00:48;99504.78;;;20.42;75.79
73952;BME280;62304;47.662;18.324;2023-08-01T05:03:51;99503.63;;;20.52;75.28
73952;BME280;62304;47.662;18.324;2023-08-01T05:06:54;99504.03;;;20.63;75.03
73952;BME280;62304;47.662;18.324;2023-08-01T05:09:57;99496.88;;;20.71;74.50
73952;BME280;62304;47.662;18.324;2023-08-01T05:13:00;99503.81;;;20.79;73.60
73952;BME280;62304;47.662;18.324;2023-08-01T05:16:03;99502.06;;;20.94;72.52
73952;BME280;62304;47.662;18.324;2023-08-01T05:19:06;99503.44;;;21.11;71.63
73952;BME280;62304;47.662;18.324;2023-08-01T05:22:10;99508.72;;;21.30;71.15
73952;BME280;62304;47.662;18.324;2023-08-01T05:25:13;99515.19;;;21.40;70.99
73952;BME280;62304;47.662;18.324;2023-08-01T05:28:15;99506.25;;;21.72;69.85
73952;BME280;62304;47.662;18.324;2023-08-01T05:31:19;99506.66;;;22.01;68.67
73952;BME280;62304;47.662;18.324;2023-08-01T05:34:22;99490.03;;;22.12;67.46
73952;BME280;62304;47.662;18.324;2023-08-01T05:37:25;99498.22;;;22.28;67.03
73952;BME280;62304;47.662;18.324;2023-08-01T05:40:28;99502.00;;;22.43;66.39
73952;BME280;62304;47.662;18.324;2023-08-01T05:43:31;99507.19;;;22.53;66.11
73952;BME280;62304;47.662;18.324;2023-08-01T05:46:34;99502.62;;;22.74;65.70
73952;BME280;62304;47.662;18.324;2023-08-01T05:49:37;99499.97;;;22.70;64.63
73952;BME280;62304;47.662;18.324;2023-08-01T05:52:40;99494.44;;;22.85;64.32
73952;BME280;62304;47.662;18.324;2023-08-01T05:55:44;99496.63;;;22.99;64.09
73952;BME280;62304;47.662;18.324;2023-08-01T05:58:47;99495.66;;;23.20;63.39
73952;BME280;62304;47.662;18.324;2023-08-01T06:01:50;99489.63;;;23.36;62.89
73952;BME280;62304;47.662;18.324;2023-08-01T06:04:53;99491.25;;;23.19;62.82
73952;BME280;62304;47.662;18.324;2023-08-01T06:07:57;99481.97;;;23.27;62.75
73952;BME280;62304;47.662;18.324;2023-08-01T06:11:00;99485.41;;;23.31;62.53
73952;BME280;62304;47.662;18.324;2023-08-01T06:14:03;99484.03;;;23.27;62.30
73952;BME280;62304;47.662;18.324;2023-08-01T06:17:06;99483.16;;;23.44;61.87
73952;BME280;62304;47.662;18.324;2023-08-01T06:20:10;99478.81;;;23.67;61.52
73952;BME280;62304;47.662;18.324;2023-08-01T06:23:13;99479.53;;;23.76;60.76
73952;BME280;62304;47.662;18.324;2023-08-01T06:26:16;99469.91;;;23.92;60.56
73952;BME280;62304;47.662;18.324;2023-08-01T06:29:19;99469.16;;;24.06;60.33
73952;BME280;62304;47.662;18.324;2023-08-01T06:32:22;99473.13;;;23.99;60.23
73952;BME280;62304;47.662;18.324;2023-08-01T06:35:25;99470.06;;;24.12;60.02
73952;BME280;62304;47.662;18.324;2023-08-01T06:38:28;99459.34;;;24.16;59.45
73952;BME280;62304;47.662;18.324;2023-08-01T06:41:31;99471.19;;;24.29;58.48
73952;BME280;62304;47.662;18.324;2023-08-01T06:44:35;99472.50;;;24.42;58.68
73952;BME280;62304;47.662;18.324;2023-08-01T06:47:38;99475.72;;;24.35;58.05
73952;BME280;62304;47.662;18.324;2023-08-01T06:50:41;99471.56;;;24.22;57.85
73952;BME280;62304;47.662;18.324;2023-08-01T06:53:45;99456.59;;;24.21;56.96
73952;BME280;62304;47.662;18.324;2023-08-01T06:56:48;99461.09;;;24.13;57.54
73952;BME280;62304;47.662;18.324;2023-08-01T06:59:51;99433.41;;;24.46;57.59
73952;BME280;62304;47.662;18.324;2023-08-01T07:02:54;99435.38;;;24.40;56.94
73952;BME280;62304;47.662;18.324;2023-08-01T07:05:58;99438.72;;;24.53;56.94
73952;BME280;62304;47.662;18.324;2023-08-01T07:09:01;99429.19;;;24.80;56.36
73952;BME280;62304;47.662;18.324;2023-08-01T07:12:04;99441.50;;;25.06;56.09
73952;BME280;62304;47.662;18.324;2023-08-01T07:15:08;99436.03;;;25.31;55.10
73952;BME280;62304;47.662;18.324;2023-08-01T07:18:12;99423.50;;;25.38;54.96
73952;BME280;62304;47.662;18.324;2023-08-01T07:21:14;99420.38;;;25.36;54.80
73952;BME280;62304;47.662;18.324;2023-08-01T07:24:20;99413.09;;;25.20;55.26
73952;BME280;62304;47.662;18.324;2023-08-01T07:27:23;99414.13;;;25.66;54.44
73952;BME280;62304;47.662;18.324;2023-08-01T07:30:26;99408.56;;;26.12;53.63
73952;BME280;62304;47.662;18.324;2023-08-01T07:33:28;99404.16;;;25.91;52.28
73952;BME280;62304;47.662;18.324;2023-08-01T07:36:32;99406.41;;;25.52;53.36
73952;BME280;62304;47.662;18.324;2023-08-01T07:39:37;99410.81;;;25.53;52.50
73952;BME280;62304;47.662;18.324;2023-08-01T07:42:40;99395.56;;;25.71;52.82
73952;BME280;62304;47.662;18.324;2023-08-01T07:45:44;99407.63;;;25.66;52.97
73952;BME280;62304;47.662;18.324;2023-08-01T07:48:47;99404.91;;;25.91;53.04
73952;BME280;62304;47.662;18.324;2023-08-01T07:51:51;99409.91;;;25.96;53.21
73952;BME280;62304;47.662;18.324;2023-08-01T07:54:54;99405.50;;;25.61;53.05
73952;BME280;62304;47.662;18.324;2023-08-01T07:58:00;99403.12;;;25.74;53.08
73952;BME280;62304;47.662;18.324;2023-08-01T08:01:04;99407.41;;;26.04;52.79
73952;BME280;62304;47.662;18.324;2023-08-01T08:04:07;99400.56;;;26.36;51.49
73952;BME280;62304;47.662;18.324;2023-08-01T08:07:11;99406.16;;;26.50;51.57
73952;BME280;62304;47.662;18.324;2023-08-01T08:10:14;99402.31;;;26.53;50.49
73952;BME280;62304;47.662;18.324;2023-08-01T08:13:18;99398.72;;;26.33;51.20
73952;BME280;62304;47.662;18.324;2023-08-01T08:16:21;99407.63;;;26.66;50.28
73952;BME280;62304;47.662;18.324;2023-08-01T08:19:25;99403.72;;;26.63;50.67
73952;BME280;62304;47.662;18.324;2023-08-01T08:22:28;99397.78;;;26.61;50.84
73952;BME280;62304;47.662;18.324;2023-08-01T08:25:31;99395.53;;;26.25;50.38
73952;BME280;62304;47.662;18.324;2023-08-01T08:28:34;99390.28;;;26.89;50.48
73952;BME280;62304;47.662;18.324;2023-08-01T08:31:37;99394.66;;;26.85;49.14
73952;BME280;62304;47.662;18.324;2023-08-01T08:34:40;99398.41;;;27.02;49.00
73952;BME280;62304;47.662;18.324;2023-08-01T08:37:43;99384.41;;;27.29;48.61
73952;BME280;62304;47.662;18.324;2023-08-01T08:41:09;99382.31;;;27.24;48.34
73952;BME280;62304;47.662;18.324;2023-08-01T08:44:15;99381.94;;;27.48;48.02
73952;BME280;62304;47.662;18.324;2023-08-01T08:47:24;99374.19;;;27.90;47.02
73952;BME280;62304;47.662;18.324;2023-08-01T08:50:29;99380.94;;;28.57;46.04
73952;BME280;62304;47.662;18.324;2023-08-01T08:53:35;99370.16;;;28.13;45.17
73952;BME280;62304;47.662;18.324;2023-08-01T08:56:38;99376.91;;;28.21;46.54
73952;BME280;62304;47.662;18.324;2023-08-01T08:59:46;99369.16;;;28.27;44.74
73952;BME280;62304;47.662;18.324;2023-08-01T09:02:49;99362.56;;;27.94;46.65
73952;BME280;62304;47.662;18.324;2023-08-01T09:06:00;99360.84;;;28.18;47.00
73952;BME280;62304;47.662;18.324;2023-08-01T09:09:10;99351.31;;;28.38;46.95
73952;BME280;62304;47.662;18.324;2023-08-01T09:12:13;99361.69;;;28.41;45.83
73952;BME280;62304;47.662;18.324;2023-08-01T09:15:17;99363.13;;;28.09;45.60
73952;BME280;62304;47.662;18.324;2023-08-01T09:18:22;99364.97;;;28.17;45.16
73952;BME280;62304;47.662;18.324;2023-08-01T09:21:24;99358.13;;;28.84;43.35
73952;BME280;62304;47.662;18.324;2023-08-01T09:24:28;99351.13;;;29.13;42.35
73952;BME280;62304;47.662;18.324;2023-08-01T09:27:32;99345.41;;;28.91;42.34
73952;BME280;62304;47.662;18.324;2023-08-01T09:30:48;99341.28;;;29.08;42.68
73952;BME280;62304;47.662;18.324;2023-08-01T09:33:51;99336.22;;;29.80;41.52
73952;BME280;62304;47.662;18.324;2023-08-01T09:36:59;99333.75;;;30.06;40.59
73952;BME280;62304;47.662;18.324;2023-08-01T09:40:03;99351.59;;;29.50;41.22
73952;BME280;62304;47.662;18.324;2023-08-01T09:43:07;99347.22;;;28.61;42.22
73952;BME280;62304;47.662;18.324;2023-08-01T09:46:11;99357.47;;;28.31;44.11
73952;BME280;62304;47.662;18.324;2023-08-01T09:49:15;99344.72;;;28.04;44.67
73952;BME280;62304;47.662;18.324;2023-08-01T09:52:27;99342.91;;;28.07;44.94
73952;BME280;62304;47.662;18.324;2023-08-01T09:55:32;99343.91;;;28.04;46.10
73952;BME280;62304;47.662;18.324;2023-08-01T09:58:35;99329.84;;;28.75;44.34
73952;BME280;62304;47.662;18.324;2023-08-01T10:01:40;99318.38;;;29.36;42.08
73952;BME280;62304;47.662;18.324;2023-08-01T10:04:45;99320.41;;;29.63;40.68
73952;BME280;62304;47.662;18.324;2023-08-01T10:07:50;99304.06;;;29.47;40.41
73952;BME280;62304;47.662;18.324;2023-08-01T10:10:54;99310.62;;;28.87;40.64
73952;BME280;62304;47.662;18.324;2023-08-01T10:14:02;99321.78;;;28.63;41.28
73952;BME280;62304;47.662;18.324;2023-08-01T10:17:06;99314.50;;;28.40;41.62
73952;BME280;62304;47.662;18.324;2023-08-01T10:20:12;99299.72;;;28.52;41.58
73952;BME280;62304;47.662;18.324;2023-08-01T10:23:17;99301.19;;;28.26;42.14
73952;BME280;62304;47.662;18.324;2023-08-01T10:26:20;99302.50;;;28.19;42.38
73952;BME280;62304;47.662;18.324;2023-08-01T10:29:36;99304.81;;;28.21;42.98
73952;BME280;62304;47.662;18.324;2023-08-01T10:32:39;99303.81;;;28.35;42.20
73952;BME280;62304;47.662;18.324;2023-08-01T10:35:43;99294.22;;;28.16;43.17
73952;BME280;62304;47.662;18.324;2023-08-01T10:42:03;99296.78;;;28.14;43.58
73952;BME280;62304;47.662;18.324;2023-08-01T10:45:20;99292.41;;;28.18;43.60
73952;BME280;62304;47.662;18.324;2023-08-01T10:48:24;99292.87;;;28.06;43.14
73952;BME280;62304;47.662;18.324;2023-08-01T10:51:35;99291.81;;;27.98;43.54
73952;BME280;62304;47.662;18.324;2023-08-01T10:54:39;99286.38;;;28.00;44.13
73952;BME280;62304;47.662;18.324;2023-08-01T10:57:49;99288.16;;;27.92;44.63
73952;BME280;62304;47.662;18.324;2023-08-01T11:00:59;99288.16;;;27.92;44.58
73952;BME280;62304;47.662;18.324;2023-08-01T11:04:02;99284.72;;;27.77;43.73
73952;BME280;62304;47.662;18.324;2023-08-01T11:07:06;99285.56;;;27.83;44.18
73952;BME280;62304;47.662;18.324;2023-08-01T11:10:11;99284.19;;;27.73;44.71
73952;BME280;62304;47.662;18.324;2023-08-01T11:13:15;99282.34;;;27.64;44.81
73952;BME280;62304;47.662;18.324;2023-08-01T11:16:18;99273.03;;;27.69;45.11
73952;BME280;62304;47.662;18.324;2023-08-01T11:19:27;99267.34;;;27.69;45.08
73952;BME280;62304;47.662;18.324;2023-08-01T11:22:35;99265.00;;;27.68;44.49
73952;BME280;62304;47.662;18.324;2023-08-01T11:25:43;99258.22;;;27.60;44.48
73952;BME280;62304;47.662;18.324;2023-08-01T11:28:48;99259.28;;;27.68;43.38
73952;BME280;62304;47.662;18.324;2023-08-01T11:34:58;99252.38;;;27.80;44.90
73952;BME280;62304;47.662;18.324;2023-08-01T11:38:01;99243.25;;;27.76;44.33
73952;BME280;62304;47.662;18.324;2023-08-01T11:41:04;99242.00;;;27.82;44.66
73952;BME280;62304;47.662;18.324;2023-08-01T11:44:09;99244.91;;;27.88;44.30
73952;BME280;62304;47.662;18.324;2023-08-01T11:47:15;99236.06;;;27.86;43.94
73952;BME280;62304;47.662;18.324;2023-08-01T11:50:23;99232.16;;;27.83;43.70
73952;BME280;62304;47.662;18.324;2023-08-01T11:53:28;99235.31;;;27.96;44.38
73952;BME280;62304;47.662;18.324;2023-08-01T11:56:32;99235.31;;;28.02;43.89
73952;BME280;62304;47.662;18.324;2023-08-01T11:59:46;99225.75;;;28.05;43.33
73952;BME280;62304;47.662;18.324;2023-08-01T12:02:50;99213.84;;;28.23;43.46
73952;BME280;62304;47.662;18.324;2023-08-01T12:06:05;99201.44;;;28.42;43.00
73952;BME280;62304;47.662;18.324;2023-08-01T12:09:13;99195.97;;;28.50;43.55
73952;BME280;62304;47.662;18.324;2023-08-01T12:12:16;99190.75;;;28.32;43.48
73952;BME280;62304;47.662;18.324;2023-08-01T12:15:19;99190.75;;;28.54;43.04
73952;BME280;62304;47.662;18.324;2023-08-01T12:18:23;99180.66;;;28.64;42.62
73952;BME280;62304;47.662;18.324;2023-08-01T12:21:49;99187.88;;;28.76;41.65
73952;BME280;62304;47.662;18.324;2023-08-01T12:24:53;99177.03;;;28.58;40.99
73952;BME280;62304;47.662;18.324;2023-08-01T12:27:56;99175.44;;;28.79;41.78
73952;BME280;62304;47.662;18.324;2023-08-01T12:30:59;99171.75;;;28.95;41.95
73952;BME280;62304;47.662;18.324;2023-08-01T12:34:02;99169.41;;;29.10;41.21
73952;BME280;62304;47.662;18.324;2023-08-01T12:37:05;99161.00;;;29.34;41.46
73952;BME280;62304;47.662;18.324;2023-08-01T12:40:08;99171.75;;;29.68;40.88
73952;BME280;62304;47.662;18.324;2023-08-01T12:43:11;99176.06;;;29.34;39.51
73952;BME280;62304;47.662;18.324;2023-08-01T12:46:15;99168.63;;;29.15;39.77
73952;BME280;62304;47.662;18.324;2023-08-01T12:49:18;99171.75;;;29.06;41.86
73952;BME280;62304;47.662;18.324;2023-08-01T12:52:23;99164.75;;;29.07;42.70
73952;BME280;62304;47.662;18.324;2023-08-01T12:55:27;99167.78;;;29.20;42.69
73952;BME280;62304;47.662;18.324;2023-08-01T12:58:30;99161.84;;;29.23;43.33
73952;BME280;62304;47.662;18.324;2023-08-01T13:01:33;99159.19;;;29.31;42.85
73952;BME280;62304;47.662;18.324;2023-08-01T13:04:36;99153.31;;;29.64;42.18
73952;BME280;62304;47.662;18.324;2023-08-01T13:07:39;99149.19;;;29.65;42.63
73952;BME280;62304;47.662;18.324;2023-08-01T13:10:42;99146.87;;;29.52;42.58
73952;BME280;62304;47.662;18.324;2023-08-01T13:13:47;99139.78;;;29.70;42.12
73952;BME280;62304;47.662;18.324;2023-08-01T13:16:50;99142.44;;;29.97;42.01
73952;BME280;62304;47.662;18.324;2023-08-01T13:19:53;99145.59;;;29.94;42.47
73952;BME280;62304;47.662;18.324;2023-08-01T13:22:56;99131.41;;;29.31;44.28
73952;BME280;62304;47.662;18.324;2023-08-01T13:26:00;99127.66;;;28.96;45.24
73952;BME280;62304;47.662;18.324;2023-08-01T13:29:04;99126.66;;;28.77;45.27
73952;BME280;62304;47.662;18.324;2023-08-01T13:32:08;99133.97;;;28.28;45.64
73952;BME280;62304;47.662;18.324;2023-08-01T13:35:11;99137.38;;;28.16;45.40
73952;BME280;62304;47.662;18.324;2023-08-01T13:38:14;99144.59;;;27.95;45.50
73952;BME280;62304;47.662;18.324;2023-08-01T13:41:20;99136.53;;;27.66;45.42
73952;BME280;62304;47.662;18.324;2023-08-01T13:44:23;99142.66;;;27.48;45.77
73952;BME280;62304;47.662;18.324;2023-08-01T13:47:26;99150.94;;;27.35;46.33
73952;BME280;62304;47.662;18.324;2023-08-01T13:50:29;99140.00;;;27.22;46.68
73952;BME280;62304;47.662;18.324;2023-08-01T13:53:33;99143.75;;;26.97;46.58
73952;BME280;62304;47.662;18.324;2023-08-01T13:56:38;99152.56;;;27.05;46.59
73952;BME280;62304;47.662;18.324;2023-08-01T13:59:41;99159.44;;;26.76;46.08
73952;BME280;62304;47.662;18.324;2023-08-01T14:02:45;99161.41;;;26.59;48.39
73952;BME280;62304;47.662;18.324;2023-08-01T14:05:48;99172.13;;;26.50;47.21
73952;BME280;62304;47.662;18.324;2023-08-01T14:08:51;99183.63;;;26.30;48.34
73952;BME280;62304;47.662;18.324;2023-08-01T14:11:54;99189.12;;;25.82;48.43
73952;BME280;62304;47.662;18.324;2023-08-01T14:14:57;99194.03;;;25.62;48.67
73952;BME280;62304;47.662;18.324;2023-08-01T14:18:00;99202.81;;;25.38;49.00
73952;BME280;62304;47.662;18.324;2023-08-01T14:21:05;99208.03;;;25.05;49.77
73952;BME280;62304;47.662;18.324;2023-08-01T14:24:08;99215.13;;;24.61;50.78
73952;BME280;62304;47.662;18.324;2023-08-01T14:27:11;99218.19;;;24.14;51.39
73952;BME280;62304;47.662;18.324;2023-08-01T14:30:15;99219.31;;;23.78;53.93
73952;BME280;62304;47.662;18.324;2023-08-01T14:33:17;99226.31;;;23.07;57.31
73952;BME280;62304;47.662;18.324;2023-08-01T14:36:23;99242.31;;;22.54;60.91
73952;BME280;62304;47.662;18.324;2023-08-01T14:39:26;99256.34;;;22.12;63.49
73952;BME280;62304;47.662;18.324;2023-08-01T14:42:29;99258.47;;;21.85;65.36
73952;BME280;62304;47.662;18.324;2023-08-01T14:45:32;99250.44;;;21.65;65.87
73952;BME280;62304;47.662;18.324;2023-08-01T14:48:35;99260.00;;;21.41;68.71
73952;BME280;62304;47.662;18.324;2023-08-01T14:51:38;99272.97;;;21.11;70.00
73952;BME280;62304;47.662;18.324;2023-08-01T14:54:41;99288.69;;;20.82;72.65
73952;BME280;62304;47.662;18.324;2023-08-01T14:57:44;99286.59;;;20.64;74.68
73952;BME280;62304;47.662;18.324;2023-08-01T15:00:47;99297.28;;;20.48;77.36
73952;BME280;62304;47.662;18.324;2023-08-01T15:03:50;99298.50;;;20.38;76.45
73952;BME280;62304;47.662;18.324;2023-08-01T15:06:54;99305.56;;;20.12;80.71
73952;BME280;62304;47.662;18.324;2023-08-01T15:09:57;99305.75;;;20.05;81.08
73952;BME280;62304;47.662;18.324;2023-08-01T15:13:01;99318.59;;;20.06;82.01
73952;BME280;62304;47.662;18.324;2023-08-01T15:16:03;99306.44;;;19.87;84.00
73952;BME280;62304;47.662;18.324;2023-08-01T15:19:07;99304.06;;;19.86;84.67
73952;BME280;62304;47.662;18.324;2023-08-01T15:22:10;99323.81;;;19.73;85.04
73952;BME280;62304;47.662;18.324;2023-08-01T15:25:13;99336.19;;;19.42;86.73
73952;BME280;62304;47.662;18.324;2023-08-01T15:28:16;99347.47;;;19.30;88.41
73952;BME280;62304;47.662;18.324;2023-08-01T15:31:19;99350.25;;;19.17;89.37
73952;BME280;62304;47.662;18.324;2023-08-01T15:34:22;99351.97;;;19.02;92.47
73952;BME280;62304;47.662;18.324;2023-08-01T15:37:27;99361.41;;;18.83;94.48
73952;BME280;62304;47.662;18.324;2023-08-01T15:40:30;99397.25;;;18.67;94.96
73952;BME280;62304;47.662;18.324;2023-08-01T15:43:40;99401.59;;;18.55;96.49
73952;BME280;62304;47.662;18.324;2023-08-01T15:46:43;99355.00;;;18.58;99.34
73952;BME280;62304;47.662;18.324;2023-08-01T15:49:46;99344.09;;;18.47;99.04
73952;BME280;62304;47.662;18.324;2023-08-01T15:52:49;99362.50;;;18.48;98.36
73952;BME280;62304;47.662;18.324;2023-08-01T15:55:57;99367.34;;;18.48;100.00
73952;BME280;62304;47.662;18.324;2023-08-01T15:59:00;99384.06;;;18.39;99.94
73952;BME280;62304;47.662;18.324;2023-08-01T16:02:05;99394.81;;;18.40;100.00
73952;BME280;62304;47.662;18.324;2023-08-01T16:05:08;99386.94;;;18.35;100.00
73952;BME280;62304;47.662;18.324;2023-08-01T16:08:13;99378.94;;;18.21;100.00
73952;BME280;62304;47.662;18.324;2023-08-01T16:11:18;99384.78;;;17.98;100.00
73952;BME280;62304;47.662;18.324;2023-08-01T16:14:21;99400.63;;;18.05;100.00
73952;BME280;62304;47.662;18.324;2023-08-01T16:17:42;99389.16;;;17.99;100.00